Time;durP1;ratioP1;P1;durP2;ratioP2;P2;SDS_P1;SDS_P2;PMS_P1;PMS_P2;Temp;Humidity;BMP_temperature;BMP_pressure;BME280_temperature;BME280_humidity;BME280_pressure;Samples;Min_cycle;Max_cycle;Signal;HPM_P1;HPM_P2
2022/10/23 00:01:20;;;;;;;2.67;2.27;;;13.90;99.90;;;;;;5083900;28;20965;-83
2022/10/23 00:03:55;;;;;;;4.03;2.30;;;13.80;99.90;;;;;;5085413;28;20450;-84
2022/10/23 00:06:24;;;;;;;4.60;2.30;;;13.70;99.90;;;;;;5086396;28;20456;-84
2022/10/23 00:08:52;;;;;;;2.80;2.60;;;13.80;99.90;;;;;;5085788;28;20478;-84
2022/10/23 00:11:24;;;;;;;2.20;2.10;;;13.90;99.90;;;;;;5079364;28;20474;-84
2022/10/23 00:13:54;;;;;;;6.00;2.33;;;13.90;1.00;;;;;;5083641;28;20475;-85
2022/10/23 00:16:23;;;;;;;4.40;2.83;;;13.90;1.00;;;;;;5089408;28;21213;-84
2022/10/23 00:18:51;;;;;;;2.60;2.40;;;13.90;1.00;;;;;;5074557;28;20499;-84
2022/10/23 00:21:19;;;;;;;4.00;2.70;;;14.00;1.00;;;;;;5086372;28;21106;-84
2022/10/23 00:23:47;;;;;;;2.33;2.13;;;13.90;99.90;;;;;;5089294;28;20908;-84
2022/10/23 00:26:16;;;;;;;2.53;2.33;;;14.00;1.00;;;;;;5087199;28;20457;-85
2022/10/23 00:28:47;;;;;;;2.73;2.50;;;14.00;99.90;;;;;;5084753;28;20519;-83
2022/10/23 00:31:16;;;;;;;3.30;2.50;;;13.90;99.90;;;;;;5088195;28;20564;-83
2022/10/23 00:33:45;;;;;;;2.83;1.97;;;13.90;99.90;;;;;;5088082;28;20454;-83
2022/10/23 00:36:16;;;;;;;2.77;2.17;;;13.80;91.40;;;;;;5078475;28;20796;-84
2022/10/23 00:38:44;;;;;;;6.90;2.40;;;13.80;99.90;;;;;;5080739;28;20967;-81
2022/10/23 00:41:17;;;;;;;2.20;2.10;;;13.70;99.90;;;;;;5084055;28;20805;-83
2022/10/23 00:44:05;;;;;;;4.70;2.80;;;13.50;99.90;;;;;;5078999;28;20449;-85
2022/10/23 00:46:33;;;;;;;5.83;2.60;;;13.50;1.00;;;;;;5086700;28;20519;-84
2022/10/23 00:49:03;;;;;;;3.27;2.23;;;13.50;1.00;;;;;;5087152;28;21127;-84
2022/10/23 00:51:36;;;;;;;3.53;2.47;;;13.60;99.90;;;;;;5084852;28;20486;-85
2022/10/23 00:54:05;;;;;;;6.27;2.73;;;13.50;99.90;;;;;;5085585;28;20454;-84
2022/10/23 00:56:52;;;;;;;4.43;2.80;;;13.50;99.90;;;;;;5082463;28;20463;-84
2022/10/23 00:59:21;;;;;;;3.03;2.07;;;13.40;99.90;;;;;;5088054;28;20449;-84
2022/10/23 01:01:50;;;;;;;2.60;2.50;;;13.40;99.90;;;;;;5085944;28;20478;-85
2022/10/23 01:04:18;;;;;;;4.37;2.10;;;13.40;99.90;;;;;;5082039;28;20460;-86
2022/10/23 01:06:55;;;;;;;2.20;2.10;;;13.40;99.90;;;;;;5081080;28;20486;-84
2022/10/23 01:09:32;;;;;;;2.50;2.30;;;13.30;99.90;;;;;;5089446;28;20541;-87
2022/10/23 01:12:07;;;;;;;3.90;2.40;;;13.40;99.90;;;;;;5082436;28;20995;-84
2022/10/23 01:14:43;;;;;;;2.97;2.33;;;13.30;99.90;;;;;;5082815;28;20459;-84
2022/10/23 01:17:19;;;;;;;4.00;2.20;;;13.30;1.00;;;;;;5085561;28;20630;-84
2022/10/23 01:20:01;;;;;;;2.90;2.20;;;13.30;99.90;;;;;;5081037;28;20433;-83
2022/10/23 01:22:47;;;;;;;5.67;2.63;;;13.30;1.00;;;;;;5088678;28;20477;-83
2022/10/23 01:25:44;;;;;;;3.00;2.20;;;13.30;1.00;;;;;;5088298;28;21062;-84
2022/10/23 01:28:20;;;;;;;2.57;2.30;;;13.40;99.90;;;;;;5078270;28;20455;-83
2022/10/23 01:30:49;;;;;;;2.30;2.10;;;13.40;99.90;;;;;;5082651;28;20509;-83
2022/10/23 01:33:25;;;;;;;2.77;2.57;;;13.30;99.90;;;;;;5087047;28;21026;-83
2022/10/23 01:36:00;;;;;;;2.13;1.97;;;13.30;99.90;;;;;;5085999;28;20925;-83
2022/10/23 01:38:37;;;;;;;2.53;2.40;;;13.30;99.90;;;;;;5081271;28;20436;-83
2022/10/23 01:41:12;;;;;;;5.63;3.10;;;13.40;99.90;;;;;;5092883;28;20471;-82
2022/10/23 01:43:46;;;;;;;2.63;2.47;;;13.40;99.90;;;;;;5081286;28;21260;-84
2022/10/23 01:46:17;;;;;;;2.57;2.30;;;13.30;99.90;;;;;;5089462;28;20450;-84
2022/10/23 01:48:50;;;;;;;2.70;2.20;;;13.30;1.00;;;;;;5085452;28;20452;-84
2022/10/23 01:51:21;;;;;;;2.60;2.40;;;13.40;1.00;;;;;;5078030;28;20488;-83
2022/10/23 01:53:52;;;;;;;2.47;2.13;;;13.40;1.00;;;;;;5078678;28;20461;-85
2022/10/23 01:56:26;;;;;;;2.90;2.70;;;13.40;1.00;;;;;;5080209;28;20502;-84
2022/10/23 01:58:58;;;;;;;2.70;2.47;;;13.50;1.00;;;;;;5082217;28;20491;-83
2022/10/23 02:01:29;;;;;;;2.83;2.73;;;13.60;1.00;;;;;;5080862;28;20464;-83
2022/10/23 02:04:00;;;;;;;3.00;2.80;;;13.70;1.00;;;;;;5077537;28;21107;-82
2022/10/23 02:06:28;;;;;;;2.80;2.60;;;13.90;1.00;;;;;;5085734;28;20461;-82
2022/10/23 02:08:57;;;;;;;3.30;3.10;;;14.10;1.00;;;;;;5078341;28;20457;-83
2022/10/23 02:11:25;;;;;;;3.00;2.80;;;14.10;1.00;;;;;;5080563;28;20501;-83
2022/10/23 02:14:01;;;;;;;2.97;2.73;;;14.20;1.00;;;;;;5077731;28;20463;-83
2022/10/23 02:16:37;;;;;;;5.50;2.90;;;14.10;1.00;;;;;;5085347;28;20465;-83
2022/10/23 02:19:15;;;;;;;2.93;2.80;;;14.10;1.00;;;;;;5082022;28;20463;-84
2022/10/23 02:21:52;;;;;;;2.87;2.67;;;14.00;1.00;;;;;;5079923;28;20579;-85
2022/10/23 02:24:26;;;;;;;3.67;3.27;;;14.00;1.00;;;;;;5087642;28;20456;-84
2022/10/23 02:26:57;;;;;;;3.30;3.00;;;14.00;1.00;;;;;;5087173;28;20475;-86
2022/10/23 02:29:30;;;;;;;3.67;3.13;;;13.90;1.00;;;;;;5086659;28;20485;-85
2022/10/23 02:31:59;;;;;;;2.90;2.80;;;14.00;1.00;;;;;;5084650;28;20481;-84
2022/10/23 02:34:27;;;;;;;3.20;2.80;;;13.90;1.00;;;;;;5087887;28;20947;-84
2022/10/23 02:36:56;;;;;;;2.60;2.50;;;13.80;1.00;;;;;;5091999;28;21158;-84
2022/10/23 02:39:27;;;;;;;4.63;2.70;;;13.70;1.00;;;;;;5088030;28;20449;-84
2022/10/23 02:42:01;;;;;;;3.13;2.93;;;13.70;1.00;;;;;;5091281;28;20480;-84
2022/10/23 02:44:43;;;;;;;2.77;2.67;;;13.60;1.00;;;;;;5087044;28;20459;-84
2022/10/23 02:47:21;;;;;;;3.30;2.60;;;13.60;1.00;;;;;;5081738;28;20464;-85
2022/10/23 02:49:54;;;;;;;2.80;2.67;;;13.70;1.00;;;;;;5079657;28;21196;-83
2022/10/23 02:52:29;;;;;;;3.40;2.67;;;13.70;1.00;;;;;;5091762;28;20870;-84
2022/10/23 02:55:08;;;;;;;3.80;3.50;;;13.70;1.00;;;;;;5090140;28;21051;-83
2022/10/23 02:57:42;;;;;;;3.00;2.80;;;13.70;1.00;;;;;;5086177;28;20528;-84
2022/10/23 03:00:15;;;;;;;3.33;2.23;;;13.70;1.00;;;;;;5085830;28;20449;-85
2022/10/23 03:02:46;;;;;;;2.63;2.40;;;13.60;1.00;;;;;;5086611;28;20440;-83
2022/10/23 03:05:18;;;;;;;3.00;2.80;;;13.70;1.00;;;;;;5087782;28;20972;-84
2022/10/23 03:07:46;;;;;;;3.90;3.13;;;13.60;99.90;;;;;;5079365;28;20481;-83
2022/10/23 03:10:15;;;;;;;2.80;2.70;;;13.40;99.90;;;;;;5084818;28;20483;-83
2022/10/23 03:12:43;;;;;;;2.70;2.50;;;13.40;99.90;;;;;;5083956;28;20449;-83
2022/10/23 03:15:13;;;;;;;3.33;2.40;;;13.30;99.90;;;;;;5082256;28;20455;-83
2022/10/23 03:17:41;;;;;;;3.03;2.83;;;13.40;99.90;;;;;;5083266;28;20461;-84
2022/10/23 03:20:10;;;;;;;5.97;3.10;;;13.30;1.00;;;;;;5079641;28;20459;-84
2022/10/23 03:22:39;;;;;;;2.90;2.70;;;13.30;1.00;;;;;;5087489;28;20493;-82
2022/10/23 03:25:09;;;;;;;4.57;2.60;;;13.30;1.00;;;;;;5085753;28;20539;-83
2022/10/23 03:27:37;;;;;;;7.93;2.60;;;13.20;1.00;;;;;;5089332;28;21030;-83
2022/10/23 03:30:07;;;;;;;3.97;2.60;;;13.30;1.00;;;;;;5091313;28;20990;-84
2022/10/23 03:32:36;;;;;;;3.03;2.73;;;13.30;1.00;;;;;;5089551;28;20492;-83
2022/10/23 03:35:06;;;;;;;3.20;3.00;;;13.30;1.00;;;;;;5089050;28;20455;-83
2022/10/23 03:37:34;;;;;;;3.67;2.30;;;13.20;99.90;;;;;;5080447;28;20974;-85
2022/10/23 03:40:02;;;;;;;2.90;2.10;;;13.20;99.90;;;;;;5082265;28;20492;-84
2022/10/23 03:42:30;;;;;;;2.90;2.70;;;13.30;99.90;;;;;;5085339;28;20524;-84
2022/10/23 03:44:59;;;;;;;2.63;2.43;;;13.20;99.90;;;;;;5088961;28;20466;-83
2022/10/23 03:47:29;;;;;;;3.00;2.80;;;13.10;99.90;;;;;;5086644;28;20449;-85
2022/10/23 03:49:58;;;;;;;3.33;3.03;;;13.10;99.90;;;;;;5083708;28;20860;-83
2022/10/23 03:52:27;;;;;;;4.40;2.83;;;13.10;1.00;;;;;;5085405;28;20462;-83
2022/10/23 03:54:55;;;;;;;4.33;2.80;;;13.10;1.00;;;;;;5078013;28;20465;-85
2022/10/23 03:57:24;;;;;;;2.93;2.73;;;13.20;1.00;;;;;;5082585;28;20460;-83
2022/10/23 03:59:52;;;;;;;2.97;2.63;;;13.10;1.00;;;;;;5089787;28;20459;-83
2022/10/23 04:02:20;;;;;;;3.00;2.80;;;13.00;1.00;;;;;;5088574;28;20472;-84
2022/10/23 04:04:48;;;;;;;4.00;2.97;;;13.10;1.00;;;;;;5085835;28;20897;-83
2022/10/23 04:07:21;;;;;;;3.07;2.77;;;13.00;99.90;;;;;;5086558;28;20524;-82
2022/10/23 04:09:49;;;;;;;3.30;3.00;;;13.00;1.00;;;;;;5086387;28;20549;-83
2022/10/23 04:12:17;;;;;;;5.10;3.23;;;13.00;1.00;;;;;;5085205;28;20868;-83
2022/10/23 04:14:48;;;;;;;4.50;3.20;;;13.00;1.00;;;;;;5083312;28;21021;-83
2022/10/23 04:17:16;;;;;;;3.00;2.73;;;13.10;1.00;;;;;;5084338;28;20528;-84
2022/10/23 04:19:44;;;;;;;4.13;2.60;;;13.00;99.90;;;;;;5084818;28;20460;-84
2022/10/23 04:22:15;;;;;;;17.37;3.70;;;13.10;99.90;;;;;;5085016;28;20481;-85
2022/10/23 04:24:45;;;;;;;3.53;3.00;;;13.00;1.00;;;;;;5089124;28;20505;-84
2022/10/23 04:27:14;;;;;;;4.50;2.27;;;13.00;1.00;;;;;;5089313;28;20444;-83
2022/10/23 04:29:42;;;;;;;3.20;2.90;;;13.00;1.00;;;;;;5078728;28;20448;-83
2022/10/23 04:32:10;;;;;;;2.33;2.23;;;13.10;1.00;;;;;;5088673;28;20485;-83
2022/10/23 04:34:38;;;;;;;2.60;2.40;;;13.10;1.00;;;;;;5092364;28;20959;-82
2022/10/23 04:37:06;;;;;;;2.23;2.13;;;13.20;1.00;;;;;;5087419;28;20883;-83
2022/10/23 04:39:34;;;;;;;2.90;2.70;;;13.20;1.00;;;;;;5085067;28;20493;-86
2022/10/23 04:42:04;;;;;;;6.30;2.70;;;13.30;1.00;;;;;;5089386;28;20892;-84
2022/10/23 04:44:32;;;;;;;3.13;2.50;;;13.20;1.00;;;;;;5087845;28;20481;-84
2022/10/23 04:47:00;;;;;;;5.83;3.07;;;13.20;1.00;;;;;;5090229;28;20469;-85
2022/10/23 04:49:28;;;;;;;3.00;2.70;;;13.30;1.00;;;;;;5085860;28;20976;-83
2022/10/23 04:51:57;;;;;;;2.60;2.40;;;13.30;1.00;;;;;;5082529;28;20470;-83
2022/10/23 04:54:25;;;;;;;2.27;2.17;;;13.40;1.00;;;;;;5083745;28;20457;-85
2022/10/23 04:56:53;;;;;;;2.83;2.60;;;13.30;1.00;;;;;;5086628;28;20552;-84
2022/10/23 04:59:22;;;;;;;2.70;2.50;;;13.50;1.00;;;;;;5083168;28;20459;-83
2022/10/23 05:01:51;;;;;;;2.37;2.27;;;13.50;1.00;;;;;;5080932;28;20462;-84
2022/10/23 05:04:19;;;;;;;2.67;2.57;;;13.50;1.00;;;;;;5087061;28;20540;-84
2022/10/23 05:06:47;;;;;;;2.70;2.60;;;13.50;1.00;;;;;;5085864;28;20461;-83
2022/10/23 05:09:15;;;;;;;2.93;2.73;;;13.70;1.00;;;;;;5086490;28;20454;-83
2022/10/23 05:11:43;;;;;;;2.70;2.60;;;13.60;1.00;;;;;;5082692;28;20488;-84
2022/10/23 05:14:12;;;;;;;3.30;3.10;;;13.60;1.00;;;;;;5086399;28;20456;-82
2022/10/23 05:16:46;;;;;;;2.40;2.30;;;13.50;1.00;;;;;;5077388;28;20488;-84
2022/10/23 05:19:20;;;;;;;2.90;2.80;;;13.50;1.00;;;;;;5087922;28;20467;-84
2022/10/23 05:21:54;;;;;;;4.10;2.70;;;13.50;1.00;;;;;;5088541;28;21002;-85
2022/10/23 05:24:23;;;;;;;3.00;2.87;;;13.50;1.00;;;;;;5081186;28;20816;-84
2022/10/23 05:26:52;;;;;;;2.53;2.43;;;13.50;1.00;;;;;;5082795;28;20467;-84
2022/10/23 05:29:21;;;;;;;5.03;3.03;;;13.50;1.00;;;;;;5082122;28;20589;-83
2022/10/23 05:31:55;;;;;;;2.80;2.50;;;13.60;1.00;;;;;;5074396;28;20991;-84
2022/10/23 05:34:26;;;;;;;2.40;2.20;;;13.50;1.00;;;;;;5086722;28;20451;-86
2022/10/23 05:36:54;;;;;;;2.10;2.00;;;13.50;1.00;;;;;;5086826;28;20450;-83
2022/10/23 05:39:23;;;;;;;2.90;2.70;;;13.70;1.00;;;;;;5087669;28;20452;-83
2022/10/23 05:41:53;;;;;;;2.70;2.50;;;13.60;1.00;;;;;;5073232;28;20622;-83
2022/10/23 05:44:21;;;;;;;3.07;2.77;;;13.70;1.00;;;;;;5074464;28;20870;-83
2022/10/23 05:46:51;;;;;;;2.30;2.20;;;13.80;1.00;;;;;;5084252;28;20679;-83
2022/10/23 05:49:19;;;;;;;2.30;2.20;;;13.80;1.00;;;;;;5086225;28;20976;-84
2022/10/23 05:51:47;;;;;;;2.57;2.37;;;14.10;1.00;;;;;;5087936;28;20577;-83
2022/10/23 05:54:16;;;;;;;2.50;2.30;;;14.20;99.90;;;;;;5086538;28;20784;-82
2022/10/23 05:56:44;;;;;;;2.70;2.50;;;14.20;99.90;;;;;;5088282;28;20796;-83
2022/10/23 05:59:12;;;;;;;2.70;2.60;;;14.30;99.90;;;;;;5086234;28;20449;-83
2022/10/23 06:01:40;;;;;;;3.53;2.43;;;14.00;1.00;;;;;;5087191;28;20481;-82
2022/10/23 06:04:10;;;;;;;2.77;2.67;;;14.00;1.00;;;;;;5079142;28;20462;-82
2022/10/23 06:06:38;;;;;;;2.97;2.70;;;14.00;1.00;;;;;;5081670;28;20460;-83
2022/10/23 06:09:06;;;;;;;3.03;2.83;;;13.80;1.00;;;;;;5085260;28;20457;-84
2022/10/23 06:11:34;;;;;;;3.20;2.93;;;13.80;1.00;;;;;;5087414;28;20569;-84
2022/10/23 06:14:03;;;;;;;3.80;3.00;;;13.80;1.00;;;;;;5081047;28;20456;-83
2022/10/23 06:16:31;;;;;;;3.00;2.90;;;13.60;1.00;;;;;;5084721;28;20454;-83
2022/10/23 06:18:59;;;;;;;3.00;2.70;;;13.60;1.00;;;;;;5087251;28;20456;-82
2022/10/23 06:21:31;;;;;;;2.87;2.77;;;13.60;1.00;;;;;;5077518;28;20846;-83
2022/10/23 06:24:00;;;;;;;4.10;2.93;;;13.60;1.00;;;;;;5088178;28;20519;-84
2022/10/23 06:26:28;;;;;;;6.73;3.20;;;13.60;1.00;;;;;;5086846;28;20449;-83
2022/10/23 06:28:56;;;;;;;2.87;2.73;;;13.60;1.00;;;;;;5084649;28;20506;-83
2022/10/23 06:31:26;;;;;;;2.53;2.43;;;13.60;1.00;;;;;;5088459;28;20476;-83
2022/10/23 06:33:55;;;;;;;2.60;2.50;;;13.60;1.00;;;;;;5083898;28;20891;-82
2022/10/23 06:36:23;;;;;;;2.70;2.50;;;13.50;1.00;;;;;;5082337;28;21018;-84
2022/10/23 06:38:55;;;;;;;3.93;2.90;;;13.50;1.00;;;;;;5077120;28;20851;-82
2022/10/23 06:41:23;;;;;;;2.73;2.63;;;13.50;1.00;;;;;;5080359;28;20572;-83
2022/10/23 06:43:52;;;;;;;2.70;2.60;;;13.60;1.00;;;;;;5089212;28;20824;-84
2022/10/23 06:46:20;;;;;;;3.00;2.90;;;13.70;1.00;;;;;;5080206;28;20999;-86
2022/10/23 06:48:48;;;;;;;3.13;3.03;;;13.70;1.00;;;;;;5079390;28;20477;-84
2022/10/23 06:51:17;;;;;;;3.53;3.10;;;13.60;1.00;;;;;;5075381;28;20481;-83
2022/10/23 06:53:46;;;;;;;3.00;2.80;;;13.60;1.00;;;;;;5079913;28;20469;-84
2022/10/23 06:56:15;;;;;;;3.33;3.10;;;13.60;1.00;;;;;;5080627;28;20528;-83
2022/10/23 06:58:44;;;;;;;4.73;4.40;;;13.70;1.00;;;;;;5081218;28;20540;-84
2022/10/23 07:01:13;;;;;;;4.07;3.77;;;13.80;1.00;;;;;;5081335;28;20497;-82
2022/10/23 07:03:42;;;;;;;4.03;3.83;;;13.90;1.00;;;;;;5079468;28;20453;-83
2022/10/23 07:06:11;;;;;;;4.53;4.33;;;13.80;1.00;;;;;;5079782;28;20489;-84
2022/10/23 07:08:39;;;;;;;4.53;4.23;;;13.90;1.00;;;;;;5074586;28;20461;-84
2022/10/23 07:11:10;;;;;;;4.90;3.83;;;14.00;1.00;;;;;;5082439;28;20576;-83
2022/10/23 07:13:41;;;;;;;2.60;2.40;;;14.10;1.00;;;;;;5077287;28;20504;-83
2022/10/23 07:16:11;;;;;;;3.03;2.80;;;14.40;99.90;;;;;;5079685;28;20549;-82
2022/10/23 07:18:40;;;;;;;4.33;4.03;;;14.60;1.00;;;;;;5089032;28;20906;-84
2022/10/23 07:21:08;;;;;;;2.93;2.83;;;14.40;1.00;;;;;;5081819;28;20466;-83
2022/10/23 07:23:37;;;;;;;3.50;3.40;;;14.70;99.90;;;;;;5089747;28;20433;-83
2022/10/23 07:26:07;;;;;;;3.50;3.40;;;15.00;99.90;;;;;;5090536;28;20457;-83
2022/10/23 07:28:35;;;;;;;3.00;2.90;;;15.10;1.00;;;;;;5081242;28;20835;-83
2022/10/23 07:31:05;;;;;;;2.87;2.77;;;15.20;1.00;;;;;;5091361;28;20465;-84
2022/10/23 07:33:33;;;;;;;3.00;2.90;;;15.30;1.00;;;;;;5084838;28;20479;-85
2022/10/23 07:36:04;;;;;;;3.00;2.90;;;15.40;1.00;;;;;;5092560;28;20525;-84
2022/10/23 07:38:33;;;;;;;3.93;3.63;;;15.40;1.00;;;;;;5088614;28;21088;-85
2022/10/23 07:41:01;;;;;;;4.70;4.50;;;15.50;99.90;;;;;;5081386;28;21001;-84
2022/10/23 07:43:30;;;;;;;5.77;5.37;;;15.60;99.90;;;;;;5090806;28;20451;-86
2022/10/23 07:45:59;;;;;;;4.23;4.13;;;15.70;1.00;;;;;;5086981;28;20969;-85
2022/10/23 07:48:29;;;;;;;4.23;3.83;;;15.90;98.80;;;;;;5083069;28;20452;-80
2022/10/23 07:50:59;;;;;;;4.23;3.93;;;16.00;1.00;;;;;;5085172;28;20699;-85
2022/10/23 07:53:28;;;;;;;3.67;3.57;;;16.30;1.00;;;;;;5079404;28;20472;-84
2022/10/23 07:55:58;;;;;;;3.67;3.57;;;16.40;1.00;;;;;;5083061;28;20451;-85
2022/10/23 07:58:27;;;;;;;4.10;3.90;;;16.60;80.30;;;;;;5088000;28;20456;-84
2022/10/23 08:00:57;;;;;;;4.10;3.70;;;16.70;1.00;;;;;;5086869;28;20501;-85
2022/10/23 08:03:26;;;;;;;3.70;3.60;;;16.90;99.90;;;;;;5078357;28;21498;-85
2022/10/23 08:05:56;;;;;;;3.10;3.00;;;17.30;99.90;;;;;;5078869;28;20483;-85
2022/10/23 08:08:26;;;;;;;3.63;3.43;;;17.60;99.90;;;;;;5086799;28;20486;-87
2022/10/23 08:10:55;;;;;;;2.93;2.83;;;18.00;99.90;;;;;;5089142;28;20565;-84
2022/10/23 08:13:23;;;;;;;5.33;3.60;;;18.30;99.90;;;;;;5086553;28;20477;-86
2022/10/23 08:15:52;;;;;;;3.50;3.30;;;18.80;45.60;;;;;;5086101;28;20454;-85
2022/10/23 08:18:20;;;;;;;3.63;3.47;;;19.60;20.50;;;;;;5085976;28;20466;-84
2022/10/23 08:20:51;;;;;;;3.40;3.30;;;20.30;1.00;;;;;;5089603;28;20870;-85
2022/10/23 08:23:20;;;;;;;4.20;3.97;;;20.90;1.00;;;;;;5082086;28;20435;-85
2022/10/23 08:25:48;;;;;;;4.00;3.80;;;20.60;1.00;;;;;;5089280;28;20477;-85
2022/10/23 08:28:17;;;;;;;3.60;3.50;;;21.10;1.00;;;;;;5083777;28;20457;-85
2022/10/23 08:30:45;;;;;;;3.20;3.10;;;20.80;1.00;;;;;;5085095;28;20480;-85
2022/10/23 08:33:13;;;;;;;3.17;3.07;;;20.30;1.00;;;;;;5078718;28;20471;-87
2022/10/23 08:35:41;;;;;;;3.60;3.40;;;19.80;1.00;;;;;;5081124;28;20454;-84
2022/10/23 08:38:10;;;;;;;3.63;3.43;;;19.50;1.00;;;;;;5081428;28;20670;-85
2022/10/23 08:40:44;;;;;;;3.90;3.70;;;19.40;1.00;;;;;;5078276;28;20474;-84
2022/10/23 08:43:20;;;;;;;4.17;3.87;;;19.30;12.90;;;;;;5082063;28;20556;-85
2022/10/23 08:45:53;;;;;;;4.23;4.00;;;19.30;49.10;;;;;;5083018;28;20465;-84
2022/10/23 08:48:26;;;;;;;4.13;3.93;;;19.70;1.00;;;;;;5079586;28;20473;-85
2022/10/23 08:50:59;;;;;;;5.20;3.60;;;19.70;1.00;;;;;;5079744;28;20542;-85
2022/10/23 08:53:32;;;;;;;3.80;3.70;;;19.90;1.00;;;;;;5077924;28;20462;-85
2022/10/23 08:56:06;;;;;;;4.03;3.90;;;19.90;1.00;;;;;;5078612;28;20469;-86
2022/10/23 08:58:39;;;;;;;3.20;3.10;;;20.30;1.00;;;;;;5080642;28;20485;-85
2022/10/23 09:01:32;;;;;;;3.60;3.40;;;20.60;1.00;;;;;;5077425;28;20501;-85
2022/10/23 09:04:01;;;;;;;3.10;2.90;;;21.20;1.00;;;;;;5093127;28;20540;-86
2022/10/23 09:06:36;;;;;;;3.60;3.40;;;22.00;99.90;;;;;;5079530;28;21043;-85
2022/10/23 09:09:22;;;;;;;3.00;2.90;;;22.30;99.90;;;;;;5081736;28;20907;-87
2022/10/23 09:12:00;;;;;;;2.20;1.93;;;23.00;99.90;;;;;;5075886;28;20478;-83
2022/10/23 09:14:49;;;;;;;1.90;1.80;;;23.20;99.90;;;;;;5083764;28;20507;-86
2022/10/23 09:17:24;;;;;;;1.70;1.70;;;24.40;99.90;;;;;;5076432;28;20468;-86
2022/10/23 09:19:59;;;;;;;3.13;1.70;;;25.50;99.90;;;;;;5082328;28;20453;-86
2022/10/23 09:22:28;;;;;;;1.70;1.60;;;25.90;99.90;;;;;;5083385;28;20459;-86
2022/10/23 09:24:56;;;;;;;1.70;1.70;;;26.00;99.90;;;;;;5081310;28;20613;-85
2022/10/23 09:27:26;;;;;;;1.87;1.77;;;26.40;99.90;;;;;;5081151;28;20466;-87
2022/10/23 09:29:57;;;;;;;1.70;1.60;;;26.40;99.90;;;;;;5076743;28;20540;-86
2022/10/23 09:32:36;;;;;;;3.20;1.80;;;25.80;99.90;;;;;;5081304;28;20522;-87
2022/10/23 09:35:06;;;;;;;4.50;1.70;;;25.40;99.90;;;;;;5077256;28;20573;-85
2022/10/23 09:37:36;;;;;;;1.30;1.30;;;24.90;99.90;;;;;;5083381;28;20438;-87
2022/10/23 09:40:16;;;;;;;3.47;1.40;;;24.40;99.90;;;;;;5081851;28;20524;-86
2022/10/23 09:42:55;;;;;;;1.40;1.30;;;24.30;99.90;;;;;;5075035;28;20950;-78
2022/10/23 09:45:30;;;;;;;1.30;1.30;;;24.40;99.90;;;;;;5077319;28;20472;-80
2022/10/23 09:48:16;;;;;;;1.40;1.30;;;24.10;99.90;;;;;;5074104;28;20457;-81
2022/10/23 09:50:53;;;;;;;1.40;1.30;;;24.70;99.90;;;;;;5081170;28;20485;-80
2022/10/23 09:53:32;;;;;;;1.40;1.40;;;25.30;99.90;;;;;;5078199;28;20981;-80
2022/10/23 09:56:03;;;;;;;1.83;1.73;;;25.70;99.90;;;;;;5076625;28;20543;-81
2022/10/23 09:58:36;;;;;;;1.40;1.40;;;26.10;99.90;;;;;;5084863;28;20461;-80
2022/10/23 10:01:04;;;;;;;1.50;1.40;;;26.40;99.90;;;;;;5081379;28;20470;-80
2022/10/23 10:03:33;;;;;;;3.77;1.40;;;26.20;99.90;;;;;;5075839;28;20438;-80
2022/10/23 10:06:03;;;;;;;4.10;1.20;;;26.10;99.90;;;;;;5076754;28;20947;-80
2022/10/23 10:08:44;;;;;;;1.57;1.47;;;26.10;99.90;;;;;;5080104;28;20472;-80
2022/10/23 10:11:17;;;;;;;2.03;1.63;;;26.10;99.90;;;;;;5076172;28;22109;-81
2022/10/23 10:14:12;;;;;;;1.63;1.30;;;26.00;99.90;;;;;;5078673;28;20790;-80
2022/10/23 10:16:48;;;;;;;3.63;1.33;;;25.90;99.90;;;;;;5079599;28;20458;-81
2022/10/23 10:19:36;;;;;;;1.73;1.30;;;26.10;99.90;;;;;;5071127;28;20457;-82
2022/10/23 10:22:25;;;;;;;1.40;1.30;;;26.40;99.90;;;;;;5078070;28;21134;-80
2022/10/23 10:25:00;;;;;;;1.30;1.30;;;27.40;99.90;;;;;;5077921;28;20983;-80
2022/10/23 10:27:38;;;;;;;1.30;1.30;;;27.90;99.90;;;;;;5083086;28;20446;-81
2022/10/23 10:30:15;;;;;;;1.20;1.20;;;28.60;99.90;;;;;;5076486;28;20868;-80
2022/10/23 10:32:49;;;;;;;1.63;1.53;;;28.20;99.90;;;;;;5080055;28;20457;-80
2022/10/23 10:35:25;;;;;;;1.60;1.50;;;27.70;99.90;;;;;;5081221;28;20502;-82
2022/10/23 10:38:20;;;;;;;1.20;1.20;;;28.10;99.90;;;;;;5082258;28;20454;-81
2022/10/23 10:41:03;;;;;;;4.27;1.40;;;28.50;99.90;;;;;;5080826;28;20572;-80
2022/10/23 10:43:38;;;;;;;2.40;1.60;;;27.50;99.90;;;;;;5080670;28;20983;-81
2022/10/23 10:46:18;;;;;;;1.50;1.40;;;26.70;99.90;;;;;;5082097;28;20455;-79
2022/10/23 10:48:51;;;;;;;3.13;1.50;;;26.00;99.90;;;;;;5078687;28;20458;-80
2022/10/23 10:51:27;;;;;;;1.93;1.20;;;24.90;99.90;;;;;;5082822;28;20827;-80
2022/10/23 10:54:08;;;;;;;1.13;1.10;;;24.20;99.90;;;;;;5085696;28;21072;-81
2022/10/23 10:56:41;;;;;;;1.40;1.30;;;24.00;99.90;;;;;;5085238;28;20481;-88
2022/10/23 10:59:16;;;;;;;1.10;1.10;;;24.50;99.90;;;;;;5098148;28;20480;-85
2022/10/23 11:01:53;;;;;;;1.23;1.10;;;24.40;99.90;;;;;;5081990;28;20474;-85
2022/10/23 11:04:31;;;;;;;1.20;1.10;;;24.10;99.90;;;;;;5080267;28;20670;-83
2022/10/23 11:07:06;;;;;;;1.33;1.30;;;23.40;99.90;;;;;;5086320;28;20461;-85
2022/10/23 11:09:35;;;;;;;1.50;1.40;;;22.90;99.90;;;;;;5076753;28;20919;-85
2022/10/23 11:12:03;;;;;;;1.23;1.00;;;22.50;99.90;;;;;;5083206;28;20477;-85
2022/10/23 11:14:33;;;;;;;2.20;1.13;;;22.30;99.90;;;;;;5080463;28;20469;-85
2022/10/23 11:17:09;;;;;;;1.30;1.20;;;22.20;99.90;;;;;;5100283;28;20558;-83
2022/10/23 11:19:42;;;;;;;1.40;1.30;;;21.90;99.90;;;;;;5078789;28;20453;-85
2022/10/23 11:22:16;;;;;;;2.60;1.30;;;21.80;99.90;;;;;;5075912;28;20477;-85
2022/10/23 11:25:13;;;;;;;1.17;1.17;;;21.80;99.90;;;;;;5080329;28;20452;-84
2022/10/23 11:28:01;;;;;;;3.00;2.10;;;21.80;99.90;;;;;;5080590;28;20452;-83
2022/10/23 11:30:43;;;;;;;1.93;1.30;;;21.70;99.90;;;;;;5078114;28;20536;-85
2022/10/23 11:33:39;;;;;;;2.70;1.20;;;21.70;99.90;;;;;;5072827;28;20819;-84
2022/10/23 11:36:16;;;;;;;2.10;1.60;;;21.70;99.90;;;;;;5079982;28;20477;-83
2022/10/23 11:38:46;;;;;;;1.53;1.43;;;21.60;99.90;;;;;;5079777;28;20469;-85
2022/10/23 11:41:20;;;;;;;1.87;1.77;;;21.60;99.90;;;;;;5082722;28;20469;-84
2022/10/23 11:43:56;;;;;;;1.70;1.47;;;21.50;99.90;;;;;;5081201;28;20457;-86
2022/10/23 11:46:32;;;;;;;3.23;1.40;;;21.60;99.90;;;;;;5076322;28;20475;-86
2022/10/23 11:49:04;;;;;;;1.20;1.20;;;21.70;99.90;;;;;;5087294;28;21022;-85
2022/10/23 11:51:34;;;;;;;1.67;1.57;;;21.80;99.90;;;;;;5084306;28;21084;-85
2022/10/23 11:54:23;;;;;;;1.50;1.40;;;21.70;99.90;;;;;;5080429;28;20842;-86
2022/10/23 11:57:04;;;;;;;1.30;1.20;;;21.60;99.90;;;;;;5090188;28;20855;-85
2022/10/23 11:59:50;;;;;;;2.50;2.07;;;21.70;99.90;;;;;;5081759;28;20452;-85
2022/10/23 12:02:31;;;;;;;1.60;1.50;;;21.70;99.90;;;;;;5082455;28;20486;-85
2022/10/23 12:05:05;;;;;;;1.40;1.30;;;21.70;99.90;;;;;;5087394;28;20444;-85
2022/10/23 12:07:37;;;;;;;1.40;1.30;;;21.70;99.90;;;;;;5084403;28;20443;-84
2022/10/23 12:10:17;;;;;;;1.13;1.10;;;21.70;99.90;;;;;;5082015;28;21048;-85
2022/10/23 12:12:56;;;;;;;1.50;1.40;;;21.80;99.90;;;;;;5082568;28;20456;-84
2022/10/23 12:15:26;;;;;;;1.50;1.40;;;21.90;99.90;;;;;;5081600;28;20481;-84
2022/10/23 12:17:57;;;;;;;1.37;1.27;;;21.80;99.90;;;;;;5084632;28;20461;-85
2022/10/23 12:20:37;;;;;;;1.40;1.40;;;21.70;99.90;;;;;;5081916;28;20460;-85
2022/10/23 12:23:35;;;;;;;1.43;1.33;;;21.80;99.90;;;;;;5083017;28;20482;-86
2022/10/23 12:26:33;;;;;;;1.80;1.70;;;21.70;99.90;;;;;;5053006;28;20537;-88
2022/10/23 12:29:10;;;;;;;1.87;1.60;;;21.70;99.90;;;;;;5080948;28;20512;-87
2022/10/23 12:31:47;;;;;;;1.47;1.20;;;21.70;99.90;;;;;;5079648;28;21053;-88
2022/10/23 12:34:31;;;;;;;1.40;1.27;;;21.70;99.90;;;;;;5090143;28;20447;-87
2022/10/23 12:37:19;;;;;;;1.30;1.20;;;21.60;99.90;;;;;;5091134;28;21069;-89
2022/10/23 12:39:52;;;;;;;2.63;1.50;;;21.50;99.90;;;;;;5089980;28;20459;-88
2022/10/23 12:42:23;;;;;;;1.37;1.30;;;21.50;99.90;;;;;;5089994;28;20829;-87
2022/10/23 12:44:59;;;;;;;1.70;1.60;;;21.70;99.90;;;;;;5088710;28;20877;-87
2022/10/23 12:47:29;;;;;;;1.43;1.33;;;21.80;99.90;;;;;;5083337;28;20461;-87
2022/10/23 12:49:58;;;;;;;1.60;1.30;;;21.90;99.90;;;;;;5090663;28;20456;-87
2022/10/23 12:52:27;;;;;;;3.63;1.10;;;22.10;99.90;;;;;;5085773;28;21053;-87
2022/10/23 12:54:58;;;;;;;1.30;1.20;;;22.10;99.90;;;;;;5083652;28;20815;-88
2022/10/23 12:57:29;;;;;;;1.40;1.30;;;22.20;99.90;;;;;;5086884;28;20442;-87
2022/10/23 13:00:01;;;;;;;1.57;1.47;;;22.30;99.90;;;;;;5090116;28;20463;-87
2022/10/23 13:02:31;;;;;;;1.40;1.30;;;22.30;99.90;;;;;;5089466;28;20560;-87
2022/10/23 13:05:02;;;;;;;1.10;1.10;;;22.20;99.90;;;;;;5078087;28;20968;-88
2022/10/23 13:07:35;;;;;;;1.33;1.30;;;22.20;99.90;;;;;;5078776;28;20456;-87
2022/10/23 13:10:05;;;;;;;1.30;1.30;;;22.30;99.90;;;;;;5082867;28;20546;-87
2022/10/23 13:12:35;;;;;;;1.40;1.30;;;22.40;99.90;;;;;;5082579;28;20487;-88
2022/10/23 13:15:16;;;;;;;1.40;1.30;;;22.50;99.90;;;;;;5089523;28;20469;-87
2022/10/23 13:17:47;;;;;;;1.20;1.20;;;22.50;99.90;;;;;;5086602;28;20476;-88
2022/10/23 13:20:25;;;;;;;2.70;1.20;;;22.50;99.90;;;;;;5081579;28;20446;-88